createdAt,value
2023-01-20T00:02:27.628Z,21.90
2023-01-20T00:04:58.394Z,21.75
2023-01-20T00:07:29.240Z,22.25
2023-01-20T00:10:05.252Z,22.35
2023-01-20T00:12:36.895Z,23.52
2023-01-20T00:15:12.762Z,24.53
2023-01-20T00:17:46.222Z,25.37
2023-01-20T00:20:17.340Z,24.15
2023-01-20T00:22:48.033Z,23.92
2023-01-20T00:25:19.079Z,25.80
2023-01-20T00:27:49.805Z,26.83
2023-01-20T00:30:24.865Z,24.83
2023-01-20T00:32:55.847Z,25.25
2023-01-20T00:35:26.784Z,23.73
2023-01-20T00:37:59.452Z,23.83
2023-01-20T00:40:30.154Z,25.15
2023-01-20T00:43:00.903Z,23.27
2023-01-20T00:45:34.328Z,23.58
2023-01-20T00:48:05.259Z,24.77
2023-01-20T00:50:35.947Z,24.90
2023-01-20T00:53:06.749Z,23.70
2023-01-20T00:55:37.563Z,23.10
2023-01-20T00:58:17.409Z,22.80
2023-01-20T01:00:53.802Z,22.90
2023-01-20T01:03:25.201Z,22.88
2023-01-20T01:05:55.919Z,23.98
2023-01-20T01:08:26.667Z,23.45
2023-01-20T01:10:58.798Z,24.83
2023-01-20T01:13:29.578Z,24.90
2023-01-20T01:16:03.362Z,23.00
2023-01-20T01:18:34.211Z,23.85
2023-01-20T01:21:12.360Z,25.42
2023-01-20T01:23:43.133Z,24.42
2023-01-20T01:26:13.915Z,24.88
2023-01-20T01:28:44.772Z,25.35
2023-01-20T01:31:21.839Z,26.05
2023-01-20T01:33:52.633Z,27.38
2023-01-20T01:36:23.435Z,25.73
2023-01-20T01:38:58.521Z,25.65
2023-01-20T01:41:30.328Z,26.50
2023-01-20T01:44:10.388Z,25.42
2023-01-20T01:46:44.625Z,26.38
2023-01-20T01:49:20.751Z,25.67
2023-01-20T01:51:55.559Z,25.83
2023-01-20T01:54:40.032Z,25.45
2023-01-20T01:57:11.599Z,24.83
2023-01-20T01:59:45.017Z,26.50
2023-01-20T02:02:22.704Z,23.40
2023-01-20T02:04:55.027Z,23.23
2023-01-20T02:07:25.871Z,22.15
2023-01-20T02:09:56.692Z,20.67
2023-01-20T02:12:43.614Z,21.65
2023-01-20T02:15:16.454Z,21.00
2023-01-20T02:18:01.484Z,21.98
2023-01-20T02:20:57.665Z,22.75
2023-01-20T02:23:47.520Z,21.42
2023-01-20T02:26:46.465Z,21.38
2023-01-20T02:29:48.041Z,20.08
2023-01-20T02:32:29.862Z,22.25
2023-01-20T02:35:05.831Z,23.17
2023-01-20T02:37:41.585Z,21.20
2023-01-20T02:40:27.972Z,22.42
2023-01-20T02:43:05.112Z,23.17
2023-01-20T02:45:45.946Z,23.80
2023-01-20T02:48:25.855Z,24.08
2023-01-20T02:51:03.924Z,26.27
2023-01-20T02:53:40.902Z,23.80
2023-01-20T02:56:15.198Z,25.50
2023-01-20T02:58:51.637Z,24.63
2023-01-20T03:01:28.081Z,25.17
2023-01-20T03:04:04.776Z,25.30
2023-01-20T03:06:40.147Z,24.95
2023-01-20T03:09:15.614Z,25.02
2023-01-20T03:11:53.423Z,24.17
2023-01-20T03:14:24.635Z,26.20
2023-01-20T03:16:55.747Z,24.40
2023-01-20T03:19:31.303Z,24.80
2023-01-20T03:22:02.040Z,24.10
2023-01-20T03:24:35.477Z,26.15
2023-01-20T03:27:06.767Z,25.83
2023-01-20T03:29:37.681Z,26.05
2023-01-20T03:32:11.399Z,26.65
2023-01-20T03:34:46.702Z,26.80
2023-01-20T03:37:17.649Z,24.48
2023-01-20T03:39:48.512Z,27.20
2023-01-20T03:42:27.101Z,23.35
2023-01-20T03:45:07.989Z,23.73
2023-01-20T03:47:56.221Z,23.60
2023-01-20T03:50:40.535Z,22.98
2023-01-20T03:53:21.643Z,23.05
2023-01-20T03:55:59.732Z,22.88
2023-01-20T03:58:33.773Z,23.20
2023-01-20T04:01:17.970Z,22.70
2023-01-20T04:03:52.936Z,24.23
2023-01-20T04:06:32.063Z,23.85
2023-01-20T04:09:06.218Z,22.30
2023-01-20T04:11:37.161Z,23.33
2023-01-20T04:14:08.416Z,22.63
2023-01-20T04:16:40.234Z,21.87
2023-01-20T04:19:10.979Z,23.02
2023-01-20T04:21:50.701Z,21.33
2023-01-20T04:24:27.958Z,20.55
2023-01-20T04:26:58.631Z,20.17
2023-01-20T04:29:29.372Z,18.85
2023-01-20T04:32:03.760Z,18.35
2023-01-20T04:34:34.642Z,19.10
2023-01-20T04:37:08.149Z,19.13
2023-01-20T04:39:39.153Z,17.70
2023-01-20T04:42:09.877Z,16.37
2023-01-20T04:44:42.904Z,16.42
2023-01-20T04:47:13.665Z,16.60
2023-01-20T04:49:47.019Z,16.08
2023-01-20T04:52:20.390Z,16.95
2023-01-20T04:54:51.125Z,16.40
2023-01-20T04:57:22.095Z,17.38
2023-01-20T04:59:52.825Z,16.40
2023-01-20T05:02:23.661Z,17.33
2023-01-20T05:04:54.631Z,17.08
2023-01-20T05:07:28.217Z,17.23
2023-01-20T05:09:58.970Z,17.30
2023-01-20T05:12:31.510Z,16.55
2023-01-20T05:15:02.296Z,16.75
2023-01-20T05:17:33.191Z,16.75
2023-01-20T05:20:04.005Z,17.02
2023-01-20T05:22:37.485Z,17.60
2023-01-20T05:25:09.467Z,17.23
2023-01-20T05:27:40.646Z,15.25
2023-01-20T05:30:15.431Z,15.00
2023-01-20T05:32:52.689Z,14.75
2023-01-20T05:35:23.757Z,14.75
2023-01-20T05:37:58.774Z,14.27
2023-01-20T05:40:31.913Z,17.17
2023-01-20T05:43:02.944Z,14.15
2023-01-20T05:45:34.284Z,14.45
2023-01-20T05:48:05.929Z,13.98
2023-01-20T05:50:38.710Z,15.25
2023-01-20T05:53:12.063Z,13.80
2023-01-20T05:55:44.432Z,14.35
2023-01-20T05:58:15.472Z,13.77
2023-01-20T06:00:46.294Z,14.18
2023-01-20T06:03:19.819Z,16.23
2023-01-20T06:05:51.273Z,15.15
2023-01-20T06:08:24.536Z,13.07
2023-01-20T06:10:56.288Z,13.00
2023-01-20T06:13:36.280Z,12.38
2023-01-20T06:16:07.964Z,13.70
2023-01-20T06:18:38.982Z,16.52
2023-01-20T06:21:10.136Z,14.77
2023-01-20T06:23:43.441Z,15.90
2023-01-20T06:26:16.213Z,15.38
2023-01-20T06:28:46.967Z,15.63
2023-01-20T06:31:19.095Z,14.75
2023-01-20T06:33:49.894Z,16.30
2023-01-20T06:36:20.882Z,17.23
2023-01-20T06:38:54.316Z,16.08
2023-01-20T06:41:25.680Z,16.33
2023-01-20T06:43:56.508Z,18.70
2023-01-20T06:46:29.908Z,18.25
2023-01-20T06:49:01.440Z,17.15
2023-01-20T06:51:33.718Z,16.30
2023-01-20T06:54:07.130Z,17.23
2023-01-20T06:56:38.030Z,15.13
2023-01-20T06:59:08.819Z,18.05
2023-01-20T07:01:43.086Z,18.30
2023-01-20T07:04:16.669Z,18.75
2023-01-20T07:06:47.510Z,19.20
2023-01-20T07:09:20.983Z,19.08
2023-01-20T07:11:51.843Z,18.52
2023-01-20T07:14:22.563Z,17.30
2023-01-20T07:16:53.543Z,17.20
2023-01-20T07:19:24.332Z,17.50
2023-01-20T07:21:55.050Z,18.23
2023-01-20T07:24:28.698Z,15.00
2023-01-20T07:26:59.911Z,15.20
2023-01-20T07:29:30.678Z,14.82
2023-01-20T07:32:01.548Z,15.13
2023-01-20T07:34:32.737Z,15.05
2023-01-20T07:37:04.070Z,15.67
2023-01-20T07:39:38.167Z,15.23
2023-01-20T07:42:09.067Z,15.93
2023-01-20T07:44:39.779Z,15.20
2023-01-20T07:47:10.742Z,15.10
2023-01-20T07:49:41.515Z,14.57
2023-01-20T07:52:12.318Z,14.38
2023-01-20T07:54:48.605Z,15.63
2023-01-20T07:57:19.480Z,15.52
2023-01-20T07:59:50.391Z,15.10
2023-01-20T08:02:21.424Z,16.33
2023-01-20T08:04:52.239Z,15.60
2023-01-20T08:07:23.007Z,17.20
2023-01-20T08:09:56.315Z,16.60
2023-01-20T08:12:27.651Z,15.98
2023-01-20T08:14:58.807Z,18.37
2023-01-20T08:17:29.668Z,17.47
2023-01-20T08:20:00.424Z,16.70
2023-01-20T08:22:31.248Z,17.48
2023-01-20T08:25:05.949Z,18.30
2023-01-20T08:27:36.741Z,18.80
2023-01-20T08:30:09.046Z,18.57
2023-01-20T08:32:39.835Z,18.50
2023-01-20T08:35:12.772Z,18.90
2023-01-20T08:37:43.844Z,18.83
2023-01-20T08:40:18.351Z,19.42
2023-01-20T08:42:49.345Z,19.90
2023-01-20T08:45:20.106Z,18.07
2023-01-20T08:47:50.869Z,19.10
2023-01-20T08:50:22.703Z,19.53
2023-01-20T08:52:53.455Z,18.00
2023-01-20T08:55:26.800Z,19.03
2023-01-20T08:58:00.961Z,18.03
2023-01-20T09:00:31.784Z,18.80
2023-01-20T09:03:02.610Z,18.57
2023-01-20T09:05:33.368Z,16.03
2023-01-20T09:08:04.106Z,16.80
2023-01-20T09:10:39.035Z,16.17
2023-01-20T09:13:10.049Z,16.10
2023-01-20T09:15:41.391Z,14.97
2023-01-20T09:18:12.272Z,16.35
2023-01-20T09:20:43.017Z,13.60
2023-01-20T09:23:13.738Z,14.33
2023-01-20T09:25:47.413Z,13.80
2023-01-20T09:28:18.194Z,13.80
2023-01-20T09:30:49.236Z,14.33
2023-01-20T09:33:22.715Z,14.00
2023-01-20T09:36:12.707Z,13.97
2023-01-20T09:38:55.932Z,14.10
2023-01-20T09:41:45.622Z,13.17
2023-01-20T09:44:36.179Z,14.03
2023-01-20T09:47:26.169Z,12.03
2023-01-20T09:50:31.050Z,13.35
2023-01-20T09:53:25.549Z,12.10
2023-01-20T09:56:03.079Z,11.23
2023-01-20T09:58:44.752Z,12.57
2023-01-20T10:01:33.398Z,11.93
2023-01-20T10:04:10.140Z,13.13
2023-01-20T10:06:48.924Z,13.23
2023-01-20T10:09:27.414Z,12.47
2023-01-20T10:12:10.085Z,11.63
2023-01-20T10:14:48.938Z,12.17
2023-01-20T10:17:26.245Z,13.03
2023-01-20T10:20:04.040Z,12.00
2023-01-20T10:22:43.766Z,11.57
2023-01-20T10:25:20.119Z,12.47
2023-01-20T10:27:55.857Z,12.10
2023-01-20T10:30:34.438Z,10.60
2023-01-20T10:33:11.015Z,11.30
2023-01-20T10:35:47.312Z,11.20
2023-01-20T10:38:27.396Z,10.43
2023-01-20T10:41:05.279Z,11.90
2023-01-20T10:43:36.207Z,11.27
2023-01-20T10:46:23.523Z,11.10
2023-01-20T10:49:16.523Z,11.37
2023-01-20T10:51:54.460Z,10.30
2023-01-20T10:54:32.221Z,9.80
2023-01-20T10:57:06.771Z,10.87
2023-01-20T10:59:44.491Z,9.50
2023-01-20T11:02:22.751Z,10.47
2023-01-20T11:04:59.143Z,10.77
2023-01-20T11:07:31.562Z,11.63
2023-01-20T11:10:06.609Z,9.33
2023-01-20T11:12:45.721Z,9.40
2023-01-20T11:15:22.059Z,9.40
2023-01-20T11:18:26.492Z,9.73
2023-01-20T11:21:00.410Z,9.20
2023-01-20T11:23:52.202Z,8.50
2023-01-20T11:26:28.036Z,8.30
2023-01-20T11:29:01.376Z,8.23
2023-01-20T11:31:44.117Z,8.67
2023-01-20T11:34:29.278Z,7.80
2023-01-20T11:37:19.604Z,7.10
2023-01-20T11:40:02.871Z,8.10
2023-01-20T11:42:44.958Z,8.17
2023-01-20T11:45:32.740Z,7.67
2023-01-20T11:48:19.325Z,7.70
2023-01-20T11:50:57.496Z,8.03
2023-01-20T11:53:31.756Z,7.37
2023-01-20T11:56:04.723Z,7.60
2023-01-20T11:58:51.402Z,7.50
2023-01-20T12:01:26.937Z,7.80
2023-01-20T12:04:17.834Z,7.57
2023-01-20T12:06:58.384Z,5.67
2023-01-20T12:09:33.877Z,7.27
2023-01-20T12:12:08.193Z,7.37
2023-01-20T12:14:43.802Z,7.40
2023-01-20T12:17:34.177Z,7.80
2023-01-20T12:20:14.444Z,6.47
2023-01-20T12:23:01.555Z,7.20
2023-01-20T12:25:36.958Z,7.10
2023-01-20T12:28:16.179Z,5.90
2023-01-20T12:30:56.814Z,6.30
2023-01-20T12:33:31.558Z,5.43
2023-01-20T12:36:23.555Z,6.33
2023-01-20T12:39:15.308Z,6.33
2023-01-20T12:42:05.323Z,5.70
2023-01-20T12:44:45.755Z,5.80
2023-01-20T12:47:31.346Z,5.90
2023-01-20T12:50:22.714Z,6.37
2023-01-20T12:53:10.665Z,6.60
2023-01-20T12:55:58.004Z,7.07
2023-01-20T12:58:43.085Z,6.10
2023-01-20T13:01:42.987Z,6.40
2023-01-20T13:04:39.285Z,6.60
2023-01-20T13:07:42.939Z,6.80
2023-01-20T13:10:24.941Z,6.13
2023-01-20T13:13:03.105Z,6.37
2023-01-20T13:15:39.707Z,6.60
2023-01-20T13:18:23.267Z,6.90
2023-01-20T13:20:55.578Z,6.00
2023-01-20T13:23:31.333Z,7.97
2023-01-20T13:26:04.019Z,7.00
2023-01-20T13:28:37.891Z,7.20
2023-01-20T13:31:40.444Z,6.73
2023-01-20T13:34:33.680Z,6.70
2023-01-20T13:37:25.288Z,7.00
2023-01-20T13:39:58.086Z,7.03
2023-01-20T13:42:48.732Z,6.60
2023-01-20T13:45:29.594Z,5.97
2023-01-20T13:48:03.385Z,8.10
2023-01-20T13:50:36.449Z,7.13
2023-01-20T13:53:28.143Z,7.57
2023-01-20T13:56:02.068Z,6.27
2023-01-20T13:58:34.575Z,6.40
2023-01-20T14:01:10.373Z,6.37
2023-01-20T14:03:42.499Z,6.07
2023-01-20T14:06:24.200Z,5.53
2023-01-20T14:08:55.249Z,6.70
2023-01-20T14:11:27.587Z,7.07
2023-01-20T14:14:01.851Z,6.70
2023-01-20T14:16:42.099Z,8.80
2023-01-20T14:19:25.023Z,6.90
2023-01-20T14:21:58.181Z,6.93
2023-01-20T14:24:30.987Z,6.60
2023-01-20T14:27:14.491Z,6.70
2023-01-20T14:29:46.524Z,7.87
2023-01-20T14:32:22.830Z,7.70
2023-01-20T14:34:54.493Z,6.50
2023-01-20T14:37:31.009Z,8.97
2023-01-20T14:40:08.962Z,7.77
2023-01-20T14:42:43.429Z,6.93
2023-01-20T14:45:23.548Z,7.27
2023-01-20T14:47:57.774Z,8.63
2023-01-20T14:50:29.549Z,8.23
2023-01-20T14:53:02.923Z,6.87
2023-01-20T14:55:35.927Z,7.23
2023-01-20T14:58:11.196Z,7.67
2023-01-20T15:00:45.956Z,8.13
2023-01-20T15:03:23.904Z,10.50
2023-01-20T15:05:59.483Z,8.87
2023-01-20T15:08:56.738Z,8.23
2023-01-20T15:11:32.627Z,7.73
2023-01-20T15:14:14.649Z,7.83
2023-01-20T15:16:49.639Z,8.97
2023-01-20T15:19:32.846Z,9.40
2023-01-20T15:22:22.010Z,7.97
2023-01-20T15:24:54.887Z,7.77
2023-01-20T15:27:34.905Z,7.43
2023-01-20T15:30:27.296Z,7.03
2023-01-20T15:32:58.332Z,7.30
2023-01-20T15:35:35.765Z,7.10
2023-01-20T15:38:14.377Z,6.63
2023-01-20T15:40:45.107Z,7.10
2023-01-20T15:43:18.904Z,7.93
2023-01-20T15:45:49.665Z,7.00
2023-01-20T15:48:22.604Z,6.97
2023-01-20T15:50:58.797Z,8.20
2023-01-20T15:53:29.715Z,7.17
2023-01-20T15:56:00.517Z,8.00
2023-01-20T15:58:34.913Z,7.60
2023-01-20T16:01:05.846Z,7.47
2023-01-20T16:03:37.068Z,7.07
2023-01-20T16:06:14.681Z,8.90
2023-01-20T16:08:48.387Z,8.20
2023-01-20T16:11:20.207Z,6.97
2023-01-20T16:13:51.267Z,8.75
2023-01-20T16:16:24.213Z,6.93
2023-01-20T16:18:55.037Z,7.38
2023-01-20T16:21:28.583Z,7.73
2023-01-20T16:23:59.383Z,8.75
2023-01-20T16:26:32.077Z,7.45
2023-01-20T16:29:04.792Z,8.30
2023-01-20T16:31:36.105Z,8.63
2023-01-20T16:34:08.013Z,8.43
2023-01-20T16:36:42.988Z,8.43
2023-01-20T16:39:14.310Z,8.73
2023-01-20T16:41:52.939Z,9.07
2023-01-20T16:44:24.132Z,8.55
2023-01-20T16:46:57.441Z,8.93
2023-01-20T16:49:28.153Z,10.02
2023-01-20T16:52:01.482Z,9.88
2023-01-20T16:54:35.047Z,10.00
2023-01-20T16:57:05.786Z,9.43
2023-01-20T16:59:36.528Z,8.98
2023-01-20T17:02:11.061Z,11.02
2023-01-20T17:04:42.019Z,9.45
2023-01-20T17:07:15.352Z,10.25
2023-01-20T17:09:46.943Z,8.85
2023-01-20T17:12:19.168Z,8.52
2023-01-20T17:14:49.953Z,10.07
2023-01-20T17:17:24.250Z,10.85
2023-01-20T17:19:55.006Z,13.15
2023-01-20T17:22:28.411Z,13.77
2023-01-20T17:24:59.194Z,14.15
2023-01-20T17:27:30.026Z,14.77
2023-01-20T17:30:03.950Z,15.43
2023-01-20T17:32:34.713Z,14.80
2023-01-20T17:35:09.672Z,11.45
2023-01-20T17:37:45.550Z,13.85
2023-01-20T17:40:17.227Z,13.10
2023-01-20T17:42:51.020Z,12.82
2023-01-20T17:45:21.747Z,14.10
2023-01-20T17:47:56.107Z,15.00
2023-01-20T17:50:26.931Z,12.70
2023-01-20T17:53:00.743Z,13.20
2023-01-20T17:55:37.257Z,14.55
2023-01-20T17:58:07.987Z,13.70
2023-01-20T18:00:39.172Z,14.32
2023-01-20T18:03:10.928Z,13.35
2023-01-20T18:05:41.650Z,13.57
2023-01-20T18:08:16.471Z,15.90
2023-01-20T18:10:47.411Z,17.35
2023-01-20T18:13:18.379Z,17.45
2023-01-20T18:15:49.186Z,17.15
2023-01-20T18:18:20.628Z,17.60
2023-01-20T18:20:51.574Z,17.02
2023-01-20T18:23:25.019Z,16.20
2023-01-20T18:25:58.507Z,15.82
2023-01-20T18:28:29.350Z,16.17
2023-01-20T18:31:08.504Z,16.02
2023-01-20T18:33:44.129Z,16.10
2023-01-20T18:36:18.064Z,16.40
2023-01-20T18:38:55.766Z,15.73
2023-01-20T18:41:28.012Z,15.15
2023-01-20T18:43:59.255Z,14.70
2023-01-20T18:46:30.651Z,14.48
2023-01-20T18:49:01.574Z,15.07
2023-01-20T18:51:33.241Z,15.63
2023-01-20T18:54:10.421Z,15.30
2023-01-20T18:56:41.425Z,15.38
2023-01-20T18:59:14.154Z,16.50
2023-01-20T19:01:45.560Z,16.70
2023-01-20T19:04:16.404Z,13.70
2023-01-20T19:06:48.029Z,14.95
2023-01-20T19:09:21.455Z,16.10
2023-01-20T19:11:52.173Z,16.02
2023-01-20T19:14:23.077Z,16.60
2023-01-20T19:16:54.170Z,16.92
2023-01-20T19:19:25.034Z,16.98
2023-01-20T19:21:55.814Z,16.73
2023-01-20T19:24:32.401Z,16.40
2023-01-20T19:27:03.920Z,17.10
2023-01-20T19:29:35.073Z,17.10
2023-01-20T19:32:08.271Z,16.73
2023-01-20T19:34:39.443Z,17.10
2023-01-20T19:37:10.154Z,16.73
2023-01-20T19:39:43.477Z,18.67
2023-01-20T19:42:14.385Z,16.90
2023-01-20T19:44:45.143Z,17.65
2023-01-20T19:47:15.945Z,16.60
2023-01-20T19:49:49.782Z,18.65
2023-01-20T19:52:24.779Z,19.42
2023-01-20T19:54:58.083Z,18.45
2023-01-20T19:57:29.742Z,19.23
2023-01-20T20:00:00.493Z,17.80
2023-01-20T20:02:31.203Z,20.38
2023-01-20T20:05:01.972Z,19.25
2023-01-20T20:07:32.688Z,17.17
2023-01-20T20:10:06.439Z,20.60
2023-01-20T20:12:37.160Z,19.15
2023-01-20T20:15:09.737Z,20.42
2023-01-20T20:17:40.519Z,20.80
2023-01-20T20:20:13.034Z,20.85
2023-01-20T20:22:43.858Z,22.60
2023-01-20T20:25:17.246Z,22.10
2023-01-20T20:27:47.908Z,22.30
2023-01-20T20:30:20.672Z,20.52
2023-01-20T20:32:51.416Z,22.23
2023-01-20T20:35:22.195Z,23.08
2023-01-20T20:37:52.936Z,22.63
2023-01-20T20:40:26.474Z,24.38
2023-01-20T20:43:01.935Z,22.00
2023-01-20T20:45:33.863Z,21.33
2023-01-20T20:48:04.733Z,22.17
2023-01-20T20:50:36.358Z,24.73
2023-01-20T20:53:08.058Z,24.77
2023-01-20T20:55:45.058Z,23.60
2023-01-20T20:58:17.327Z,25.58
2023-01-20T21:00:56.764Z,26.08
2023-01-20T21:03:28.024Z,25.88
2023-01-20T21:05:58.863Z,24.73
2023-01-20T21:08:29.693Z,25.00
2023-01-20T21:11:08.100Z,24.00
2023-01-20T21:13:38.842Z,23.60
2023-01-20T21:16:13.933Z,25.27
2023-01-20T21:18:44.982Z,24.23
2023-01-20T21:21:19.256Z,23.25
2023-01-20T21:23:54.667Z,22.95
2023-01-20T21:26:30.707Z,24.98
2023-01-20T21:29:03.800Z,23.20
2023-01-20T21:31:34.926Z,22.63
2023-01-20T21:34:06.781Z,21.95
2023-01-20T21:36:41.491Z,23.08
2023-01-20T21:39:14.821Z,23.27
2023-01-20T21:41:50.769Z,24.13
2023-01-20T21:44:32.455Z,23.50
2023-01-20T21:47:04.874Z,24.55
2023-01-20T21:49:49.544Z,24.05
2023-01-20T21:52:35.208Z,23.20
2023-01-20T21:55:08.131Z,24.23
2023-01-20T21:57:41.803Z,24.73
2023-01-20T22:00:16.200Z,25.05
2023-01-20T22:02:49.035Z,22.85
2023-01-20T22:05:20.360Z,25.00
2023-01-20T22:07:53.950Z,23.10
2023-01-20T22:10:24.692Z,22.08
2023-01-20T22:12:58.081Z,24.13
2023-01-20T22:15:29.979Z,23.85
2023-01-20T22:18:01.446Z,22.77
2023-01-20T22:20:32.292Z,23.92
2023-01-20T22:23:03.387Z,24.15
2023-01-20T22:25:34.095Z,24.35
2023-01-20T22:28:07.864Z,23.45
2023-01-20T22:30:38.679Z,22.65
2023-01-20T22:33:09.430Z,24.58
2023-01-20T22:35:40.459Z,25.52
2023-01-20T22:38:11.205Z,23.27
2023-01-20T22:40:41.993Z,24.23
2023-01-20T22:43:15.309Z,25.38
2023-01-20T22:45:48.205Z,24.48
2023-01-20T22:48:19.149Z,24.95
2023-01-20T22:50:49.884Z,25.58
2023-01-20T22:53:20.717Z,24.58
2023-01-20T22:56:00.951Z,24.45
2023-01-20T22:58:35.170Z,24.42
2023-01-20T23:01:06.534Z,22.75
2023-01-20T23:03:37.212Z,22.52
2023-01-20T23:06:08.018Z,24.65
2023-01-20T23:08:42.178Z,24.00
2023-01-20T23:11:15.204Z,24.80
2023-01-20T23:13:49.357Z,25.42
2023-01-20T23:16:22.449Z,26.92
2023-01-20T23:18:56.496Z,25.08
2023-01-20T23:21:27.399Z,24.42
2023-01-20T23:23:58.134Z,25.00
2023-01-20T23:26:30.666Z,26.15
2023-01-20T23:29:04.135Z,24.73
2023-01-20T23:31:35.718Z,26.02
2023-01-20T23:34:06.567Z,25.23
2023-01-20T23:36:46.528Z,25.15
2023-01-20T23:39:17.246Z,26.42
2023-01-20T23:41:48.124Z,26.42
2023-01-20T23:44:21.422Z,24.13
2023-01-20T23:46:52.149Z,24.30
2023-01-20T23:49:22.993Z,25.05
2023-01-20T23:51:53.742Z,25.50
2023-01-20T23:54:24.701Z,24.83
2023-01-20T23:56:55.453Z,25.17
2023-01-20T23:59:28.784Z,24.10
